createdAt,value
2019-03-29T00:01:34.863Z,6.80
2019-03-29T00:04:01.902Z,6.90
2019-03-29T00:06:29.023Z,7.30
2019-03-29T00:08:56.469Z,6.80
2019-03-29T00:11:24.686Z,6.70
2019-03-29T00:19:33.788Z,6.80
2019-03-29T00:22:02.525Z,6.70
2019-03-29T00:24:29.426Z,6.60
2019-03-29T00:26:56.186Z,6.40
2019-03-29T00:29:23.968Z,6.50
2019-03-29T00:31:50.661Z,6.60
2019-03-29T00:34:17.382Z,6.50
2019-03-29T00:36:44.214Z,6.50
2019-03-29T00:39:10.720Z,6.50
2019-03-29T00:41:37.519Z,6.50
2019-03-29T00:44:04.088Z,6.60
2019-03-29T00:46:31.060Z,6.50
2019-03-29T00:48:57.599Z,6.50
2019-03-29T00:51:24.948Z,6.50
2019-03-29T00:53:51.955Z,6.40
2019-03-29T00:56:19.009Z,6.90
2019-03-29T00:58:48.744Z,6.30
2019-03-29T01:01:15.543Z,6.30
2019-03-29T01:03:42.330Z,6.30
2019-03-29T01:06:09.097Z,6.20
2019-03-29T01:08:35.615Z,6.30
2019-03-29T01:11:02.221Z,6.30
2019-03-29T01:13:28.748Z,6.70
2019-03-29T01:15:55.345Z,6.20
2019-03-29T01:18:21.990Z,6.20
2019-03-29T01:20:49.132Z,6.10
2019-03-29T01:23:15.798Z,5.00
2019-03-29T01:25:42.602Z,6.20
2019-03-29T01:28:09.380Z,6.20
2019-03-29T01:30:35.862Z,6.20
2019-03-29T01:33:02.993Z,6.20
2019-03-29T01:35:29.663Z,6.30
2019-03-29T01:37:57.033Z,6.30
2019-03-29T01:40:24.160Z,6.40
2019-03-29T01:42:52.880Z,6.40
2019-03-29T01:45:20.053Z,6.30
2019-03-29T01:47:47.071Z,6.40
2019-03-29T01:50:13.902Z,6.40
2019-03-29T01:52:40.442Z,6.40
2019-03-29T01:55:07.180Z,6.40
2019-03-29T01:57:33.903Z,6.40
2019-03-29T02:00:00.705Z,6.50
2019-03-29T02:02:27.416Z,6.50
2019-03-29T02:04:53.776Z,6.50
2019-03-29T02:07:20.185Z,6.50
2019-03-29T02:09:46.705Z,6.50
2019-03-29T02:12:25.284Z,6.50
2019-03-29T02:15:05.147Z,6.60
2019-03-29T02:17:31.753Z,6.60
2019-03-29T02:19:58.352Z,6.70
2019-03-29T02:22:25.751Z,6.50
2019-03-29T02:24:53.492Z,6.60
2019-03-29T02:27:20.885Z,6.60
2019-03-29T02:29:47.494Z,6.60
2019-03-29T02:32:14.082Z,6.60
2019-03-29T02:34:40.780Z,6.70
2019-03-29T02:37:07.169Z,6.70
2019-03-29T02:39:33.770Z,6.80
2019-03-29T02:42:00.721Z,6.70
2019-03-29T02:44:27.291Z,6.70
2019-03-29T02:46:54.208Z,6.60
2019-03-29T02:49:20.724Z,6.60
2019-03-29T02:51:47.129Z,6.60
2019-03-29T02:54:13.655Z,6.60
2019-03-29T02:56:40.346Z,6.60
2019-03-29T02:59:06.738Z,6.60
2019-03-29T03:01:33.301Z,6.60
2019-03-29T03:03:59.783Z,6.60
2019-03-29T03:06:26.219Z,6.60
2019-03-29T03:08:52.527Z,6.70
2019-03-29T03:11:19.338Z,6.70
2019-03-29T03:13:45.900Z,6.80
2019-03-29T03:16:12.626Z,6.80
2019-03-29T03:18:39.009Z,6.80
2019-03-29T03:21:05.777Z,6.70
2019-03-29T03:23:33.552Z,6.70
2019-03-29T03:26:00.151Z,6.70
2019-03-29T03:28:26.868Z,6.80
2019-03-29T03:30:53.518Z,6.80
2019-03-29T03:33:20.033Z,7.50
2019-03-29T03:35:47.562Z,6.80
2019-03-29T03:38:13.991Z,6.90
2019-03-29T03:40:40.570Z,7.00
2019-03-29T03:44:06.497Z,7.00
2019-03-29T03:46:33.408Z,7.00
2019-03-29T03:48:59.760Z,7.10
2019-03-29T03:51:26.340Z,7.10
2019-03-29T03:53:53.568Z,7.10
2019-03-29T03:56:20.464Z,7.10
2019-03-29T03:58:47.288Z,7.10
2019-03-29T04:01:13.733Z,7.10
2019-03-29T04:03:40.479Z,8.10
2019-03-29T04:06:07.498Z,7.20
2019-03-29T04:08:34.277Z,7.20
2019-03-29T04:11:00.914Z,7.20
2019-03-29T04:13:27.402Z,7.30
2019-03-29T04:15:54.247Z,7.30
2019-03-29T04:18:20.715Z,7.40
2019-03-29T04:20:47.512Z,7.40
2019-03-29T04:23:14.135Z,7.40
2019-03-29T04:25:40.772Z,7.40
2019-03-29T04:28:07.364Z,7.50
2019-03-29T04:30:33.881Z,7.50
2019-03-29T04:33:00.855Z,7.50
2019-03-29T04:35:27.606Z,7.50
2019-03-29T04:37:54.361Z,7.50
2019-03-29T04:40:20.997Z,7.50
2019-03-29T04:42:47.516Z,7.60
2019-03-29T04:45:14.460Z,7.70
2019-03-29T04:47:41.225Z,7.70
2019-03-29T04:50:08.252Z,7.70
2019-03-29T04:52:34.794Z,7.80
2019-03-29T04:55:01.838Z,7.90
2019-03-29T04:57:28.567Z,7.90
2019-03-29T04:59:55.035Z,7.90
2019-03-29T05:02:21.889Z,7.90
2019-03-29T05:04:48.395Z,8.00
2019-03-29T05:07:14.849Z,8.00
2019-03-29T05:09:41.462Z,8.00
2019-03-29T05:12:09.717Z,8.00
2019-03-29T05:14:36.222Z,8.10
2019-03-29T05:17:02.665Z,8.00
2019-03-29T05:19:29.680Z,9.00
2019-03-29T05:21:56.262Z,8.10
2019-03-29T05:24:23.023Z,8.20
2019-03-29T05:26:49.654Z,8.20
2019-03-29T05:29:16.279Z,8.20
2019-03-29T05:31:42.923Z,8.20
2019-03-29T05:34:09.475Z,8.20
2019-03-29T05:36:36.275Z,8.30
2019-03-29T05:39:04.876Z,8.40
2019-03-29T05:41:31.743Z,8.30
2019-03-29T05:43:58.314Z,8.40
2019-03-29T05:46:24.754Z,9.00
2019-03-29T05:48:51.392Z,8.40
2019-03-29T05:51:18.742Z,8.50
2019-03-29T05:53:45.313Z,8.50
2019-03-29T05:56:11.829Z,8.50
2019-03-29T05:58:38.344Z,8.50
2019-03-29T06:01:04.798Z,8.60
2019-03-29T06:03:33.348Z,8.60
2019-03-29T06:06:15.785Z,8.60
2019-03-29T06:08:42.476Z,8.70
2019-03-29T06:11:09.089Z,8.70
2019-03-29T06:13:36.259Z,8.70
2019-03-29T06:16:06.045Z,8.70
2019-03-29T06:18:31.546Z,8.80
2019-03-29T06:20:58.165Z,8.90
2019-03-29T06:23:24.613Z,8.90
2019-03-29T06:25:51.279Z,8.90
2019-03-29T06:28:21.133Z,8.90
2019-03-29T06:30:48.033Z,8.90
2019-03-29T06:33:14.720Z,8.90
2019-03-29T06:35:42.660Z,8.90
2019-03-29T06:38:11.262Z,8.90
2019-03-29T06:40:37.821Z,9.00
2019-03-29T06:43:04.427Z,8.90
2019-03-29T06:45:31.141Z,9.00
2019-03-29T06:47:57.512Z,9.10
2019-03-29T06:50:24.684Z,9.10
2019-03-29T06:52:53.306Z,9.10
2019-03-29T06:55:19.838Z,9.20
2019-03-29T06:57:47.187Z,9.20
2019-03-29T07:00:13.940Z,9.30
2019-03-29T07:02:40.624Z,9.30
2019-03-29T07:05:07.480Z,9.30
2019-03-29T07:07:34.482Z,9.40
2019-03-29T07:10:02.219Z,9.50
2019-03-29T07:12:30.624Z,9.50
2019-03-29T07:14:58.037Z,9.50
2019-03-29T07:17:24.512Z,9.60
2019-03-29T07:19:53.250Z,9.50
2019-03-29T07:22:20.518Z,9.50
2019-03-29T07:24:49.215Z,9.60
2019-03-29T07:27:25.066Z,9.60
2019-03-29T07:29:54.357Z,9.60
2019-03-29T07:32:21.220Z,10.20
2019-03-29T07:34:52.017Z,9.60
2019-03-29T07:37:18.591Z,9.70
2019-03-29T07:39:45.491Z,9.70
2019-03-29T07:42:13.279Z,9.70
2019-03-29T07:47:37.451Z,9.70
2019-03-29T07:50:06.797Z,9.80
2019-03-29T07:52:35.759Z,9.40
2019-03-29T07:55:03.603Z,9.70
2019-03-29T07:57:30.269Z,9.80
2019-03-29T08:00:00.948Z,9.90
2019-03-29T08:02:28.919Z,10.00
2019-03-29T08:04:55.878Z,10.10
2019-03-29T08:07:27.440Z,10.10
2019-03-29T08:09:51.019Z,10.10
2019-03-29T08:12:18.417Z,10.20
2019-03-29T08:14:46.868Z,10.60
2019-03-29T08:17:14.837Z,10.30
2019-03-29T08:19:41.486Z,10.40
2019-03-29T08:22:08.706Z,10.40
2019-03-29T08:24:35.429Z,10.50
2019-03-29T08:27:02.259Z,10.60
2019-03-29T08:29:31.502Z,10.50
2019-03-29T08:31:58.915Z,10.60
2019-03-29T08:34:25.825Z,10.50
2019-03-29T08:36:52.408Z,10.60
2019-03-29T08:39:27.796Z,10.50
2019-03-29T08:41:59.546Z,10.50
2019-03-29T08:44:16.036Z,10.50
2019-03-29T08:46:42.834Z,10.60
2019-03-29T08:49:09.612Z,10.50
2019-03-29T08:51:36.959Z,10.50
2019-03-29T08:54:07.708Z,10.50
2019-03-29T08:56:34.191Z,10.70
2019-03-29T08:59:01.261Z,10.70
2019-03-29T09:01:27.861Z,10.70
2019-03-29T09:04:04.620Z,10.80
2019-03-29T09:06:23.388Z,10.70
2019-03-29T09:08:50.264Z,10.70
2019-03-29T09:11:17.425Z,10.80
2019-03-29T09:13:44.379Z,10.80
2019-03-29T09:16:12.024Z,10.90
2019-03-29T09:18:38.595Z,11.00
2019-03-29T09:21:05.391Z,11.00
2019-03-29T09:23:31.950Z,11.00
2019-03-29T09:25:58.337Z,11.10
2019-03-29T09:28:25.452Z,11.30
2019-03-29T09:30:56.637Z,11.30
2019-03-29T09:33:22.810Z,11.40
2019-03-29T09:35:50.665Z,11.40
2019-03-29T09:38:22.406Z,11.40
2019-03-29T09:40:58.558Z,11.40
2019-03-29T09:43:22.418Z,11.40
2019-03-29T09:45:48.999Z,11.40
2019-03-29T09:48:15.897Z,11.50
2019-03-29T09:50:42.390Z,11.60
2019-03-29T09:53:09.154Z,11.80
2019-03-29T09:55:36.071Z,12.60
2019-03-29T09:58:03.133Z,13.40
2019-03-29T10:00:29.674Z,14.10
2019-03-29T10:02:56.579Z,14.90
2019-03-29T10:05:23.600Z,15.20
2019-03-29T10:07:51.406Z,14.90
2019-03-29T10:10:18.188Z,14.70
2019-03-29T10:12:44.662Z,14.80
2019-03-29T10:15:11.931Z,14.50
2019-03-29T10:17:38.550Z,14.00
2019-03-29T10:20:06.057Z,13.50
2019-03-29T10:22:32.714Z,13.10
2019-03-29T10:25:01.826Z,12.70
2019-03-29T10:27:27.598Z,12.40
2019-03-29T10:29:57.190Z,12.40
2019-03-29T10:32:23.774Z,12.30
2019-03-29T10:34:51.531Z,12.20
2019-03-29T10:37:25.793Z,12.60
2019-03-29T10:39:54.482Z,12.30
2019-03-29T10:42:21.677Z,12.30
2019-03-29T10:44:49.562Z,12.40
2019-03-29T10:47:16.666Z,12.40
2019-03-29T10:49:43.137Z,12.30
2019-03-29T10:52:09.553Z,12.70
2019-03-29T10:54:36.215Z,12.30
2019-03-29T10:57:03.725Z,12.60
2019-03-29T10:59:31.004Z,12.70
2019-03-29T11:01:57.581Z,12.50
2019-03-29T11:04:24.761Z,12.60
2019-03-29T11:06:51.819Z,12.70
2019-03-29T11:09:21.233Z,12.80
2019-03-29T11:11:49.898Z,12.70
2019-03-29T11:14:17.942Z,12.80
2019-03-29T11:16:45.177Z,12.90
2019-03-29T11:19:12.233Z,12.70
2019-03-29T11:21:41.169Z,12.40
2019-03-29T11:24:09.374Z,12.60
2019-03-29T11:26:39.440Z,12.80
2019-03-29T11:29:06.066Z,12.90
2019-03-29T11:31:33.577Z,12.90
2019-03-29T11:34:01.379Z,13.60
2019-03-29T11:36:40.627Z,13.30
2019-03-29T11:39:08.572Z,13.70
2019-03-29T11:41:45.242Z,13.80
2019-03-29T11:44:13.908Z,13.80
2019-03-29T11:46:45.374Z,13.30
2019-03-29T11:49:12.231Z,13.40
2019-03-29T11:51:38.684Z,13.30
2019-03-29T11:54:05.264Z,13.10
2019-03-29T11:56:32.155Z,13.20
2019-03-29T11:58:59.073Z,13.20
2019-03-29T12:01:25.584Z,13.20
2019-03-29T12:03:52.269Z,13.20
2019-03-29T12:06:18.847Z,13.20
2019-03-29T12:09:06.447Z,13.50
2019-03-29T12:11:35.104Z,13.60
2019-03-29T12:14:05.004Z,13.50
2019-03-29T12:16:31.591Z,13.60
2019-03-29T12:18:58.258Z,13.70
2019-03-29T12:21:25.311Z,13.90
2019-03-29T12:23:52.188Z,14.20
2019-03-29T12:26:19.685Z,14.80
2019-03-29T12:28:46.482Z,15.00
2019-03-29T12:31:17.330Z,15.10
2019-03-29T12:33:45.985Z,15.00
2019-03-29T12:36:12.396Z,14.70
2019-03-29T12:38:39.781Z,14.50
2019-03-29T12:41:11.818Z,14.10
2019-03-29T12:43:54.492Z,13.80
2019-03-29T12:46:08.959Z,14.10
2019-03-29T12:48:35.803Z,14.70
2019-03-29T12:51:02.336Z,14.70
2019-03-29T12:53:28.910Z,15.00
2019-03-29T12:55:59.348Z,15.30
2019-03-29T12:58:26.041Z,15.40
2019-03-29T13:00:53.054Z,15.40
2019-03-29T13:03:19.823Z,15.40
2019-03-29T13:05:46.489Z,15.00
2019-03-29T13:08:13.454Z,14.80
2019-03-29T13:10:42.496Z,14.60
2019-03-29T13:13:08.558Z,14.70
2019-03-29T13:15:35.891Z,14.90
2019-03-29T13:18:02.788Z,14.90
2019-03-29T13:20:29.359Z,15.00
2019-03-29T13:22:56.034Z,15.80
2019-03-29T13:25:23.766Z,15.90
2019-03-29T13:27:50.557Z,16.20
2019-03-29T13:30:18.049Z,16.80
2019-03-29T13:32:46.825Z,16.70
2019-03-29T13:35:13.775Z,16.80
2019-03-29T13:37:40.373Z,17.00
2019-03-29T13:40:07.528Z,16.90
2019-03-29T13:42:34.231Z,16.50
2019-03-29T13:45:01.023Z,16.60
2019-03-29T13:47:27.577Z,16.70
2019-03-29T13:49:54.614Z,16.90
2019-03-29T13:52:21.794Z,17.30
2019-03-29T13:54:48.299Z,17.10
2019-03-29T13:57:14.890Z,16.70
2019-03-29T13:59:41.388Z,16.50
2019-03-29T14:02:08.280Z,16.30
2019-03-29T14:04:35.310Z,16.10
2019-03-29T14:07:03.403Z,15.90
2019-03-29T14:09:30.230Z,15.60
2019-03-29T14:11:58.420Z,15.70
2019-03-29T14:14:37.703Z,16.10
2019-03-29T14:16:54.287Z,16.30
2019-03-29T14:19:21.954Z,16.20
2019-03-29T14:21:48.591Z,16.30
2019-03-29T14:24:15.173Z,16.80
2019-03-29T14:26:43.095Z,17.60
2019-03-29T14:29:10.706Z,17.60
2019-03-29T14:31:37.794Z,18.10
2019-03-29T14:34:04.420Z,18.30
2019-03-29T14:36:31.304Z,18.10
2019-03-29T14:38:57.975Z,18.30
2019-03-29T14:41:26.440Z,18.60
2019-03-29T14:43:53.770Z,19.30
2019-03-29T14:46:20.280Z,19.20
2019-03-29T14:48:46.940Z,18.90
2019-03-29T14:51:13.679Z,19.00
2019-03-29T14:53:40.355Z,18.80
2019-03-29T14:56:07.027Z,18.40
2019-03-29T14:58:33.861Z,18.20
2019-03-29T15:01:00.387Z,17.80
2019-03-29T15:03:27.021Z,17.90
2019-03-29T15:05:53.846Z,18.10
2019-03-29T15:08:20.580Z,18.40
2019-03-29T15:10:47.742Z,18.90
2019-03-29T15:13:15.606Z,18.80
2019-03-29T15:15:42.605Z,18.90
2019-03-29T15:18:09.355Z,18.70
2019-03-29T15:20:35.740Z,18.80
2019-03-29T15:23:02.645Z,19.20
2019-03-29T15:25:29.136Z,19.60
2019-03-29T15:27:55.800Z,19.50
2019-03-29T15:30:22.475Z,18.90
2019-03-29T15:32:49.715Z,18.70
2019-03-29T15:35:20.915Z,18.60
2019-03-29T15:37:47.757Z,18.00
2019-03-29T15:40:14.583Z,17.40
2019-03-29T15:42:41.145Z,16.90
2019-03-29T15:45:19.585Z,16.70
2019-03-29T15:47:40.398Z,16.60
2019-03-29T15:50:09.578Z,16.40
2019-03-29T15:52:37.984Z,16.20
2019-03-29T15:55:05.730Z,16.50
2019-03-29T15:57:36.930Z,16.30
2019-03-29T16:00:09.705Z,16.20
2019-03-29T16:02:36.210Z,16.10
2019-03-29T16:05:04.860Z,16.20
2019-03-29T16:07:34.796Z,16.30
2019-03-29T16:10:00.836Z,16.60
2019-03-29T16:12:28.279Z,16.50
2019-03-29T16:14:54.995Z,16.30
2019-03-29T16:17:22.915Z,15.90
2019-03-29T16:19:50.189Z,15.50
2019-03-29T16:22:17.720Z,15.20
2019-03-29T16:24:45.812Z,15.20
2019-03-29T16:27:13.796Z,15.50
2019-03-29T16:29:40.744Z,15.90
2019-03-29T16:32:07.543Z,15.80
2019-03-29T16:34:35.155Z,16.00
2019-03-29T16:37:02.213Z,16.10
2019-03-29T16:39:29.024Z,16.00
2019-03-29T16:41:56.484Z,16.20
2019-03-29T16:44:24.297Z,16.10
2019-03-29T16:46:52.142Z,15.90
2019-03-29T16:49:18.762Z,15.90
2019-03-29T16:51:45.347Z,15.90
2019-03-29T16:54:12.312Z,15.40
2019-03-29T16:56:43.970Z,15.20
2019-03-29T16:59:10.975Z,15.00
2019-03-29T17:01:38.285Z,14.90
2019-03-29T17:04:04.942Z,14.90
2019-03-29T17:06:31.464Z,15.00
2019-03-29T17:08:59.510Z,15.00
2019-03-29T17:11:29.724Z,15.00
2019-03-29T17:13:56.368Z,14.80
2019-03-29T17:16:30.208Z,14.60
2019-03-29T17:21:41.007Z,14.20
2019-03-29T17:24:07.904Z,13.90
2019-03-29T17:26:34.420Z,13.90
2019-03-29T17:29:03.285Z,12.80
2019-03-29T17:31:35.042Z,12.60
2019-03-29T17:34:01.860Z,12.40
2019-03-29T17:36:30.206Z,12.30
2019-03-29T17:39:00.613Z,12.10
2019-03-29T17:41:27.682Z,11.80
2019-03-29T17:43:54.705Z,11.70
2019-03-29T17:46:21.619Z,11.40
2019-03-29T17:48:48.243Z,11.30
2019-03-29T17:54:07.072Z,10.90
2019-03-29T17:56:38.318Z,10.80
2019-03-29T17:59:06.777Z,10.80
2019-03-29T18:01:34.496Z,10.70
2019-03-29T18:04:03.263Z,10.60
2019-03-29T18:06:31.720Z,10.50
2019-03-29T18:09:00.700Z,10.50
2019-03-29T18:17:08.720Z,11.20
2019-03-29T18:19:38.847Z,10.30
2019-03-29T18:22:06.326Z,10.20
2019-03-29T18:24:34.030Z,10.20
2019-03-29T18:27:02.523Z,10.30
2019-03-29T18:29:29.924Z,10.60
2019-03-29T18:31:57.594Z,10.30
2019-03-29T18:34:25.348Z,10.20
2019-03-29T18:36:53.963Z,10.20
2019-03-29T18:42:09.516Z,11.00
2019-03-29T18:44:38.362Z,10.00
2019-03-29T18:47:06.142Z,9.90
2019-03-29T18:49:33.660Z,10.30
2019-03-29T18:52:02.109Z,9.60
2019-03-29T18:54:29.936Z,9.70
2019-03-29T18:57:15.514Z,9.70
2019-03-29T19:02:28.810Z,9.60
2019-03-29T19:04:56.101Z,9.40
2019-03-29T19:07:27.279Z,9.20
2019-03-29T19:09:56.079Z,9.00
2019-03-29T19:12:23.043Z,8.90
2019-03-29T19:14:51.259Z,8.70
2019-03-29T19:17:17.863Z,8.50
2019-03-29T19:19:45.304Z,8.80
2019-03-29T19:22:16.223Z,8.90
2019-03-29T19:24:51.126Z,9.00
2019-03-29T19:27:19.629Z,9.10
2019-03-29T19:29:48.705Z,8.80
2019-03-29T19:32:15.337Z,8.50
2019-03-29T19:37:31.419Z,8.20
2019-03-29T19:40:11.520Z,8.10
2019-03-29T19:42:41.811Z,7.80
2019-03-29T19:50:51.805Z,7.40
2019-03-29T19:53:18.551Z,7.20
2019-03-29T19:55:46.377Z,6.70
2019-03-29T20:01:03.845Z,7.30
2019-03-29T20:03:31.209Z,7.50
2019-03-29T20:06:03.574Z,7.40
2019-03-29T20:11:41.491Z,7.50
2019-03-29T20:14:11.580Z,8.20
2019-03-29T20:19:32.375Z,7.10
2019-03-29T20:21:59.385Z,6.90
2019-03-29T20:24:25.974Z,6.80
2019-03-29T20:26:53.445Z,6.50
2019-03-29T20:29:20.135Z,6.90
2019-03-29T20:31:50.008Z,6.80
2019-03-29T20:34:16.128Z,6.70
2019-03-29T20:36:45.239Z,6.80
2019-03-29T20:39:11.871Z,6.80
2019-03-29T20:41:39.594Z,6.90
2019-03-29T20:44:07.168Z,7.00
2019-03-29T20:46:34.084Z,6.90
2019-03-29T20:49:01.594Z,7.00
2019-03-29T20:51:28.235Z,6.80
2019-03-29T20:53:55.002Z,6.70
2019-03-29T20:56:23.340Z,6.50
2019-03-29T20:58:50.030Z,6.30
2019-03-29T21:01:17.413Z,6.30
2019-03-29T21:03:44.917Z,7.00
2019-03-29T21:06:12.417Z,6.60
2019-03-29T21:08:39.300Z,6.70
2019-03-29T21:11:23.683Z,6.70
2019-03-29T21:13:55.925Z,6.50
2019-03-29T21:16:23.031Z,6.40
2019-03-29T21:18:50.285Z,6.40
2019-03-29T21:21:24.661Z,6.40
2019-03-29T21:23:52.347Z,6.30
2019-03-29T21:26:20.534Z,6.20
2019-03-29T21:28:52.626Z,6.10
2019-03-29T21:31:18.574Z,6.20
2019-03-29T21:33:46.268Z,7.10
2019-03-29T21:36:13.419Z,6.00
2019-03-29T21:38:40.326Z,6.00
2019-03-29T21:41:07.661Z,5.90
2019-03-29T21:43:35.145Z,6.00
2019-03-29T21:46:02.265Z,5.90
2019-03-29T21:48:29.433Z,5.90
2019-03-29T21:50:57.588Z,5.90
2019-03-29T21:53:24.171Z,6.10
2019-03-29T21:55:50.940Z,6.20
2019-03-29T21:58:18.277Z,6.10
2019-03-29T22:00:46.890Z,6.10
2019-03-29T22:03:13.692Z,6.20
2019-03-29T22:05:42.043Z,6.30
2019-03-29T22:08:08.748Z,6.20
2019-03-29T22:10:37.410Z,6.30
2019-03-29T22:13:09.471Z,6.40
2019-03-29T22:15:36.470Z,6.30
2019-03-29T22:18:06.675Z,6.90
2019-03-29T22:20:31.937Z,6.10
2019-03-29T22:22:59.095Z,6.50
2019-03-29T22:25:25.816Z,5.90
2019-03-29T22:27:53.255Z,5.80
2019-03-29T22:30:36.145Z,5.90
2019-03-29T22:33:04.156Z,5.90
2019-03-29T22:35:31.382Z,5.90
2019-03-29T22:37:58.062Z,5.80
2019-03-29T22:40:25.238Z,5.70
2019-03-29T22:42:52.185Z,5.70
2019-03-29T22:45:19.276Z,5.70
2019-03-29T22:47:45.787Z,5.80
2019-03-29T22:50:13.625Z,5.80
2019-03-29T22:52:40.114Z,5.90
2019-03-29T22:55:07.216Z,5.20
2019-03-29T22:57:34.678Z,5.80
2019-03-29T23:00:01.622Z,5.80
2019-03-29T23:02:28.243Z,5.70
2019-03-29T23:04:55.266Z,5.80
2019-03-29T23:07:21.825Z,6.00
2019-03-29T23:09:48.425Z,6.00
2019-03-29T23:12:15.019Z,5.90
2019-03-29T23:14:41.654Z,5.90
2019-03-29T23:17:09.536Z,5.70
2019-03-29T23:19:39.747Z,5.70
2019-03-29T23:22:10.591Z,6.00
2019-03-29T23:24:37.190Z,5.80
2019-03-29T23:27:04.211Z,5.90
2019-03-29T23:29:30.857Z,6.20
2019-03-29T23:31:59.188Z,5.90
2019-03-29T23:34:26.807Z,5.80
2019-03-29T23:36:54.559Z,5.80
2019-03-29T23:39:21.351Z,5.80
2019-03-29T23:41:48.034Z,6.80
2019-03-29T23:44:15.279Z,5.80
2019-03-29T23:46:42.035Z,5.80
2019-03-29T23:49:20.439Z,5.80
2019-03-29T23:51:38.149Z,5.70
2019-03-29T23:54:04.655Z,5.60
2019-03-29T23:56:31.305Z,5.50
2019-03-29T23:58:58.441Z,5.30
